EXS4WA EGNT-LCLK
Flight info
| Callsign | EXS4WA |
|---|---|
| Flight time | N/A |
| Altitude | 23000 |
| Route | GIRLI P18 GASKO Y250 OBOXA/N0399F250 Y250 KEFTE/N0442F330 UY250 MAMUL L603 DOLAS DCT NAVPI/N0445F350 DCT DODEN DCT NEGIX DCT DINKU DCT BESNI DCT LATLO DCT OBEDI DCT KLAGY DCT MAGAM DCT VABEK UL603 OLOTA DCT RUGAS/N0442F370 DCT PEREN UN128 LMO DCT RIKSO UP14 ZAFLE DCT BENEM DCT EVENO DCT DASNI M601 BONEK |
| Aircraft | B738/M-SDE2E3FGHIRWXY/LB1 |
Departure
| Time | 2026-05-05 10:39 |
|---|---|
| Airport | Newcastle International Airport (EGNT) |
Arrival
| Time | N/A |
|---|---|
| Airport | Larnaca International Airport (LCLK) |
| Time | Latitude | Longitude | Altitude | Speed | Heading |
|---|---|---|---|---|---|
| 2026-05-05 10:18 | 55.03733 | -1.70671 | 266 ft | 0 kts | 184° |
| 2026-05-05 10:29 | 55.03737 | -1.70670 | 266 ft | 3 kts | 184° |
| 2026-05-05 10:30 | 55.03759 | -1.70667 | 266 ft | 2 kts | 184° |
| 2026-05-05 10:30 | 55.03785 | -1.70666 | 266 ft | 4 kts | 168° |
| 2026-05-05 10:30 | 55.03805 | -1.70683 | 266 ft | 4 kts | 109° |
| 2026-05-05 10:30 | 55.03808 | -1.70725 | 266 ft | 3 kts | 94° |
| 2026-05-05 10:31 | 55.03808 | -1.70733 | 266 ft | 0 kts | 94° |
| 2026-05-05 10:34 | 55.03808 | -1.70730 | 266 ft | 1 kts | 94° |
| 2026-05-05 10:34 | 55.03807 | -1.70713 | 266 ft | 3 kts | 94° |
| 2026-05-05 10:35 | 55.03805 | -1.70646 | 266 ft | 7 kts | 94° |
| 2026-05-05 10:35 | 55.03802 | -1.70561 | 266 ft | 7 kts | 93° |
| 2026-05-05 10:35 | 55.03792 | -1.70480 | 266 ft | 7 kts | 116° |
| 2026-05-05 10:35 | 55.03752 | -1.70435 | 266 ft | 7 kts | 166° |
| 2026-05-05 10:36 | 55.03694 | -1.70435 | 266 ft | 9 kts | 184° |
| 2026-05-05 10:36 | 55.03627 | -1.70455 | 266 ft | 10 kts | 208° |
| 2026-05-05 10:36 | 55.03594 | -1.70555 | 266 ft | 10 kts | 259° |
| 2026-05-05 10:36 | 55.03563 | -1.70635 | 266 ft | 8 kts | 201° |
| 2026-05-05 10:37 | 55.03511 | -1.70644 | 266 ft | 7 kts | 181° |
| 2026-05-05 10:37 | 55.03461 | -1.70646 | 267 ft | 7 kts | 181° |
| 2026-05-05 10:37 | 55.03412 | -1.70647 | 267 ft | 7 kts | 174° |
| 2026-05-05 10:37 | 55.03368 | -1.70615 | 267 ft | 7 kts | 128° |
| 2026-05-05 10:38 | 55.03370 | -1.70571 | 266 ft | 1 kts | 65° |
| 2026-05-05 10:38 | 55.03371 | -1.70570 | 266 ft | 0 kts | 65° |
| 2026-05-05 10:38 | 55.03403 | -1.70447 | 265 ft | 40 kts | 65° |
| 2026-05-05 10:39 | 55.03630 | -1.69592 | 257 ft | 113 kts | 65° |
| 2026-05-05 10:39 | 55.04020 | -1.68122 | 299 ft | 164 kts | 65° |
| 2026-05-05 10:39 | 55.04516 | -1.66223 | 1067 ft | 170 kts | 63° |
| 2026-05-05 10:39 | 55.05027 | -1.64364 | 2027 ft | 170 kts | 61° |
| 2026-05-05 10:40 | 55.05543 | -1.62479 | 2751 ft | 178 kts | 59° |
| 2026-05-05 10:40 | 55.06126 | -1.60414 | 3082 ft | 199 kts | 63° |
| 2026-05-05 10:40 | 55.06309 | -1.57926 | 3415 ft | 218 kts | 98° |
| 2026-05-05 10:40 | 55.05703 | -1.55491 | 4003 ft | 222 kts | 122° |
| 2026-05-05 10:41 | 55.04617 | -1.53402 | 4258 ft | 246 kts | 148° |
| 2026-05-05 10:41 | 55.02975 | -1.52650 | 4728 ft | 251 kts | 181° |
| 2026-05-05 10:41 | 55.01236 | -1.53197 | 5326 ft | 257 kts | 199° |
| 2026-05-05 10:41 | 54.99528 | -1.54306 | 5701 ft | 273 kts | 204° |
| 2026-05-05 10:42 | 54.95992 | -1.56875 | 7225 ft | 278 kts | 205° |
| 2026-05-05 10:42 | 54.94201 | -1.58174 | 7947 ft | 280 kts | 205° |
| 2026-05-05 10:42 | 54.92396 | -1.59470 | 8729 ft | 281 kts | 206° |
| 2026-05-05 10:43 | 54.90582 | -1.60760 | 9478 ft | 283 kts | 205° |
| 2026-05-05 10:43 | 54.88744 | -1.62057 | 10165 ft | 287 kts | 205° |
| 2026-05-05 10:43 | 54.86847 | -1.63391 | 10489 ft | 305 kts | 204° |
| 2026-05-05 10:43 | 54.84808 | -1.64821 | 10666 ft | 326 kts | 204° |
| 2026-05-05 10:44 | 54.82648 | -1.66328 | 10851 ft | 345 kts | 204° |
| 2026-05-05 10:44 | 54.80379 | -1.67903 | 11309 ft | 354 kts | 204° |
| 2026-05-05 10:44 | 54.78066 | -1.69502 | 11973 ft | 357 kts | 204° |
| 2026-05-05 10:44 | 54.75752 | -1.71099 | 12666 ft | 359 kts | 204° |
| 2026-05-05 10:45 | 54.73420 | -1.72708 | 13302 ft | 363 kts | 204° |
| 2026-05-05 10:45 | 54.71090 | -1.74315 | 13944 ft | 367 kts | 204° |
| 2026-05-05 10:45 | 54.68713 | -1.75952 | 14550 ft | 369 kts | 204° |
| 2026-05-05 10:45 | 54.66326 | -1.77594 | 15176 ft | 370 kts | 204° |
| 2026-05-05 10:46 | 54.63923 | -1.79246 | 15792 ft | 373 kts | 204° |
| 2026-05-05 10:46 | 54.61497 | -1.80913 | 16381 ft | 375 kts | 204° |
| 2026-05-05 10:46 | 54.59058 | -1.82585 | 16973 ft | 378 kts | 204° |
| 2026-05-05 10:46 | 54.56606 | -1.84264 | 17561 ft | 380 kts | 204° |
| 2026-05-05 10:47 | 54.54103 | -1.85804 | 18133 ft | 385 kts | 197° |
| 2026-05-05 10:47 | 54.51494 | -1.86697 | 18645 ft | 389 kts | 192° |
| 2026-05-05 10:47 | 54.48808 | -1.87447 | 19152 ft | 391 kts | 192° |
| 2026-05-05 10:47 | 54.46122 | -1.88229 | 19651 ft | 393 kts | 192° |
| 2026-05-05 10:48 | 54.43423 | -1.89054 | 20143 ft | 395 kts | 193° |
| 2026-05-05 10:48 | 54.40713 | -1.89900 | 20630 ft | 397 kts | 193° |
| 2026-05-05 10:48 | 54.37991 | -1.90756 | 21132 ft | 398 kts | 193° |
| 2026-05-05 10:48 | 54.35254 | -1.91617 | 21601 ft | 400 kts | 193° |
| 2026-05-05 10:49 | 54.32498 | -1.92482 | 21955 ft | 405 kts | 193° |
| 2026-05-05 10:49 | 54.29703 | -1.93357 | 22228 ft | 410 kts | 193° |
| 2026-05-05 10:49 | 54.26919 | -1.94225 | 22507 ft | 414 kts | 192° |
| 2026-05-05 10:49 | 54.24043 | -1.94603 | 22732 ft | 417 kts | 178° |
| 2026-05-05 10:50 | 54.21150 | -1.93676 | 23050 ft | 421 kts | 165° |
| 2026-05-05 10:50 | 54.18494 | -1.91682 | 23497 ft | 426 kts | 151° |
| 2026-05-05 10:50 | 54.15971 | -1.89016 | 23937 ft | 427 kts | 150° |
| 2026-05-05 10:50 | 54.13458 | -1.86303 | 24281 ft | 429 kts | 150° |
| 2026-05-05 10:51 | 54.10912 | -1.83579 | 24587 ft | 432 kts | 150° |
| 2026-05-05 10:51 | 54.08346 | -1.80876 | 24922 ft | 434 kts | 150° |
| 2026-05-05 10:51 | 54.05757 | -1.78183 | 25273 ft | 436 kts | 150° |
| 2026-05-05 10:51 | 54.03153 | -1.75490 | 25588 ft | 438 kts | 150° |
| 2026-05-05 10:52 | 54.00530 | -1.72783 | 25911 ft | 440 kts | 150° |
| 2026-05-05 10:52 | 53.97939 | -1.70109 | 26214 ft | 442 kts | 150° |
| 2026-05-05 10:52 | 53.95306 | -1.67394 | 26573 ft | 443 kts | 150° |
| 2026-05-05 10:52 | 53.92665 | -1.64672 | 26895 ft | 445 kts | 150° |
| 2026-05-05 10:53 | 53.90008 | -1.61937 | 27180 ft | 448 kts | 150° |
| 2026-05-05 10:53 | 53.87339 | -1.59194 | 27466 ft | 450 kts | 150° |
| 2026-05-05 10:53 | 53.84658 | -1.56443 | 27761 ft | 452 kts | 150° |
| 2026-05-05 10:53 | 53.81956 | -1.53674 | 28008 ft | 454 kts | 150° |
| 2026-05-05 10:54 | 53.79242 | -1.50897 | 28286 ft | 456 kts | 150° |
| 2026-05-05 10:54 | 53.76525 | -1.48119 | 28576 ft | 458 kts | 150° |
| 2026-05-05 10:54 | 53.73786 | -1.45325 | 28874 ft | 459 kts | 150° |
| 2026-05-05 10:54 | 53.71081 | -1.42561 | 29307 ft | 456 kts | 148° |
| 2026-05-05 10:55 | 53.68544 | -1.39350 | 29814 ft | 454 kts | 137° |
| 2026-05-05 10:55 | 53.66385 | -1.35480 | 30185 ft | 453 kts | 131° |
| 2026-05-05 10:55 | 53.64324 | -1.31466 | 30446 ft | 453 kts | 131° |
| 2026-05-05 10:55 | 53.62288 | -1.27480 | 30697 ft | 454 kts | 131° |
| 2026-05-05 10:56 | 53.60199 | -1.23420 | 31025 ft | 452 kts | 131° |
| 2026-05-05 10:56 | 53.58160 | -1.19501 | 31347 ft | 451 kts | 131° |
| 2026-05-05 10:56 | 53.56076 | -1.15532 | 31612 ft | 451 kts | 131° |
| 2026-05-05 10:56 | 53.53996 | -1.11594 | 31889 ft | 450 kts | 132° |
| 2026-05-05 10:57 | 53.51900 | -1.07643 | 32172 ft | 450 kts | 132° |
| 2026-05-05 10:57 | 53.49818 | -1.03727 | 32442 ft | 450 kts | 132° |